Time;durP1;ratioP1;P1;durP2;ratioP2;P2;SDS_P1;SDS_P2;PMS_P1;PMS_P2;Temp;Humidity;BMP_temperature;BMP_pressure;BME280_temperature;BME280_humidity;BME280_pressure;Samples;Min_cycle;Max_cycle;Signal;HPM_P1;HPM_P2
2022/06/07 00:02:12;;;;;;;19.52;13.65;;;;;;;;;;5034553;28;20063;-67
2022/06/07 00:04:38;;;;;;;22.42;14.30;;;;;;;;;;5035475;28;20024;-67
2022/06/07 00:07:05;;;;;;;21.95;15.15;;;;;;;;;;5030304;28;20475;-68
2022/06/07 00:09:31;;;;;;;21.02;15.40;;;;;;;;;;5039266;28;20029;-68
2022/06/07 00:11:58;;;;;;;23.42;15.05;;;;;;;;;;5040145;28;20040;-69
2022/06/07 00:14:25;;;;;;;22.20;15.10;;;;;;;;;;5034438;28;20033;-67
2022/06/07 00:16:51;;;;;;;26.15;15.57;;;;;;;;;;5034748;28;20035;-68
2022/06/07 00:19:18;;;;;;;27.80;16.25;;;;;;;;;;5039665;28;20539;-68
2022/06/07 00:21:44;;;;;;;25.38;16.83;;;;;;;;;;5033739;28;20565;-68
2022/06/07 00:24:10;;;;;;;28.13;16.48;;;;;;;;;;5036098;28;20335;-68
2022/06/07 00:26:38;;;;;;;23.80;17.15;;;;;;;;;;5054541;28;20036;-69
2022/06/07 00:29:07;;;;;;;25.50;15.55;;;;;;;;;;5034111;28;20025;-68
2022/06/07 00:31:33;;;;;;;25.67;17.60;;;;;;;;;;5034683;28;20441;-68
2022/06/07 00:34:00;;;;;;;25.48;17.88;;;;;;;;;;5031008;28;20041;-67
2022/06/07 00:36:26;;;;;;;25.67;17.83;;;;;;;;;;5036890;28;20037;-68
2022/06/07 00:38:52;;;;;;;25.30;17.30;;;;;;;;;;5037320;28;20029;-68
2022/06/07 00:41:18;;;;;;;31.58;17.38;;;;;;;;;;5032974;28;20048;-68
2022/06/07 00:44:04;;;;;;;26.05;17.42;;;;;;;;;;5029888;28;20040;-68
2022/06/07 00:46:30;;;;;;;25.70;17.10;;;;;;;;;;5035854;28;20072;-68
2022/06/07 00:48:56;;;;;;;27.38;17.70;;;;;;;;;;5029202;28;20559;-67
2022/06/07 00:51:22;;;;;;;24.55;17.08;;;;;;;;;;5030396;28;20113;-69
2022/06/07 00:53:48;;;;;;;23.60;17.05;;;;;;;;;;5039393;28;20041;-69
2022/06/07 00:56:14;;;;;;;26.33;17.95;;;;;;;;;;5033006;28;20147;-69
2022/06/07 00:58:40;;;;;;;29.75;17.88;;;;;;;;;;5038061;28;20052;-69
2022/06/07 01:01:06;;;;;;;25.83;18.13;;;;;;;;;;5035646;28;20044;-69
2022/06/07 01:03:32;;;;;;;27.65;18.40;;;;;;;;;;5032586;28;20026;-69
2022/06/07 01:10:43;;;;;;;30.65;19.02;;;;;;;;;;5039714;28;20029;-67
2022/06/07 01:11:29;;;;;;;28.48;19.15;;;;;;;;;;5033607;28;20052;-68
2022/06/07 01:13:55;;;;;;;31.98;20.15;;;;;;;;;;5029365;28;20028;-68
2022/06/07 01:16:21;;;;;;;32.03;19.73;;;;;;;;;;5032851;28;20088;-70
2022/06/07 01:18:47;;;;;;;34.40;19.75;;;;;;;;;;5030703;28;20037;-69
2022/06/07 01:21:14;;;;;;;26.98;18.67;;;;;;;;;;5050420;28;20052;-69
2022/06/07 01:23:40;;;;;;;28.88;19.05;;;;;;;;;;5038925;28;20252;-67
2022/06/07 01:26:06;;;;;;;29.15;19.70;;;;;;;;;;5033610;28;20036;-68
2022/06/07 01:28:32;;;;;;;26.05;18.90;;;;;;;;;;5032816;28;20084;-67
2022/06/07 01:30:58;;;;;;;26.02;18.90;;;;;;;;;;5032975;28;20065;-68
2022/06/07 01:33:24;;;;;;;25.45;17.77;;;;;;;;;;5025167;28;20055;-68
2022/06/07 01:36:00;;;;;;;29.02;18.42;;;;;;;;;;5037087;28;20102;-68
2022/06/07 01:38:26;;;;;;;26.38;17.77;;;;;;;;;;5039285;28;20491;-68
2022/06/07 01:43:36;;;;;;;24.05;17.30;;;;;;;;;;5036328;28;20075;-68
2022/06/07 01:46:03;;;;;;;29.05;17.65;;;;;;;;;;5024819;28;20654;-68
2022/06/07 01:48:29;;;;;;;28.15;17.40;;;;;;;;;;5045173;28;20526;-69
2022/06/07 01:51:03;;;;;;;25.30;17.45;;;;;;;;;;5025722;28;20034;-68
2022/06/07 01:53:29;;;;;;;25.48;17.60;;;;;;;;;;5033338;28;20033;-68
2022/06/07 01:56:06;;;;;;;23.80;16.40;;;;;;;;;;5039218;28;20108;-68
2022/06/07 01:58:32;;;;;;;23.40;16.70;;;;;;;;;;5033954;28;20056;-68
2022/06/07 02:00:58;;;;;;;21.40;16.02;;;;;;;;;;5029608;28;20025;-68
2022/06/07 02:03:24;;;;;;;26.55;17.95;;;;;;;;;;5033661;28;20049;-69
2022/06/07 02:05:55;;;;;;;26.90;16.17;;;;;;;;;;5037818;28;20025;-68
2022/06/07 02:08:22;;;;;;;23.92;16.50;;;;;;;;;;5028797;28;20017;-69
2022/06/07 02:10:48;;;;;;;21.67;16.08;;;;;;;;;;5033333;28;20056;-68
2022/06/07 02:13:14;;;;;;;26.33;16.40;;;;;;;;;;5034389;28;20040;-69
2022/06/07 02:15:40;;;;;;;24.05;15.73;;;;;;;;;;5039906;28;20071;-68
2022/06/07 02:18:06;;;;;;;21.98;16.10;;;;;;;;;;5031141;28;20041;-69
2022/06/07 02:20:32;;;;;;;25.15;16.23;;;;;;;;;;5036098;28;20028;-69
2022/06/07 02:22:58;;;;;;;27.58;16.75;;;;;;;;;;5037104;28;20021;-69
2022/06/07 02:25:24;;;;;;;24.45;16.30;;;;;;;;;;5033191;28;20052;-68
2022/06/07 02:27:50;;;;;;;26.15;17.33;;;;;;;;;;5032839;28;20521;-68
2022/06/07 02:30:16;;;;;;;26.75;17.35;;;;;;;;;;5018311;28;20478;-68
2022/06/07 02:32:43;;;;;;;26.52;17.75;;;;;;;;;;5032028;28;20037;-68
2022/06/07 02:35:09;;;;;;;28.30;18.05;;;;;;;;;;5031173;28;20038;-69
2022/06/07 02:37:37;;;;;;;27.65;19.25;;;;;;;;;;5037493;28;20565;-68
2022/06/07 02:40:04;;;;;;;27.52;18.88;;;;;;;;;;5030021;28;20061;-69
2022/06/07 02:42:30;;;;;;;26.88;18.88;;;;;;;;;;5038243;28;20021;-69
2022/06/07 02:44:57;;;;;;;29.42;19.58;;;;;;;;;;5029246;28;20045;-69
2022/06/07 02:47:23;;;;;;;29.90;19.65;;;;;;;;;;5036555;28;20025;-68
2022/06/07 02:49:52;;;;;;;28.90;18.40;;;;;;;;;;5035885;28;20029;-69
2022/06/07 02:52:18;;;;;;;34.90;19.17;;;;;;;;;;5038352;28;20482;-71
2022/06/07 02:54:44;;;;;;;29.83;18.92;;;;;;;;;;5031206;28;20033;-69
2022/06/07 02:57:10;;;;;;;29.58;20.38;;;;;;;;;;5033841;28;20453;-69
2022/06/07 02:59:36;;;;;;;26.83;19.17;;;;;;;;;;5032576;28;20061;-69
2022/06/07 03:02:02;;;;;;;31.63;19.55;;;;;;;;;;5038550;28;20480;-69
2022/06/07 03:04:28;;;;;;;33.92;19.45;;;;;;;;;;5037149;28;20037;-69
2022/06/07 03:06:54;;;;;;;31.85;20.00;;;;;;;;;;5030445;28;20041;-69
2022/06/07 03:09:20;;;;;;;30.60;20.45;;;;;;;;;;5041182;28;20103;-69
2022/06/07 03:11:46;;;;;;;34.05;20.40;;;;;;;;;;5037755;28;20179;-69
2022/06/07 03:14:12;;;;;;;34.42;20.67;;;;;;;;;;5038724;28;20029;-68
2022/06/07 03:16:38;;;;;;;31.17;20.17;;;;;;;;;;5033663;28;20025;-68
2022/06/07 03:19:07;;;;;;;30.38;19.20;;;;;;;;;;5043099;28;20043;-68
2022/06/07 03:21:34;;;;;;;33.13;19.92;;;;;;;;;;5040049;28;20029;-69
2022/06/07 03:24:00;;;;;;;33.50;20.08;;;;;;;;;;5042375;28;20045;-68
2022/06/07 03:26:27;;;;;;;32.60;19.67;;;;;;;;;;5035421;28;20084;-68
2022/06/07 03:28:53;;;;;;;29.52;19.88;;;;;;;;;;5034286;28;20025;-68
2022/06/07 03:31:19;;;;;;;31.45;19.65;;;;;;;;;;5039757;28;20025;-68
2022/06/07 03:33:47;;;;;;;32.20;18.42;;;;;;;;;;5031978;28;20079;-69
2022/06/07 03:36:20;;;;;;;35.83;19.10;;;;;;;;;;5037815;28;20490;-69
2022/06/07 03:38:47;;;;;;;30.45;19.02;;;;;;;;;;5029623;28;20029;-69
2022/06/07 03:41:17;;;;;;;32.58;18.50;;;;;;;;;;5034035;28;20367;-68
2022/06/07 03:43:43;;;;;;;28.98;17.80;;;;;;;;;;5027390;28;20032;-69
2022/06/07 03:46:14;;;;;;;27.70;18.38;;;;;;;;;;5035010;28;20122;-69
2022/06/07 03:48:41;;;;;;;26.98;18.27;;;;;;;;;;5025390;28;20029;-69
2022/06/07 03:51:08;;;;;;;28.27;18.45;;;;;;;;;;5035535;28;20029;-67
2022/06/07 03:53:34;;;;;;;25.45;17.02;;;;;;;;;;5038477;28;20040;-67
2022/06/07 03:56:00;;;;;;;31.00;19.13;;;;;;;;;;5036337;28;20052;-68
2022/06/07 03:58:26;;;;;;;30.00;18.50;;;;;;;;;;5030731;28;20561;-68
2022/06/07 04:00:53;;;;;;;28.48;18.00;;;;;;;;;;5044029;28;20120;-68
2022/06/07 04:03:19;;;;;;;29.25;17.42;;;;;;;;;;5035800;28;20083;-69
2022/06/07 04:05:45;;;;;;;26.30;18.08;;;;;;;;;;5041061;28;20040;-67
2022/06/07 04:08:12;;;;;;;27.95;17.45;;;;;;;;;;5033584;28;20128;-69
2022/06/07 04:10:44;;;;;;;23.17;16.35;;;;;;;;;;5041826;28;20514;-69
2022/06/07 04:13:10;;;;;;;22.77;15.52;;;;;;;;;;5031647;28;20146;-69
2022/06/07 04:15:36;;;;;;;27.92;16.13;;;;;;;;;;5037960;28;20273;-68
2022/06/07 04:18:02;;;;;;;24.73;16.10;;;;;;;;;;5029705;28;20472;-68
2022/06/07 04:20:28;;;;;;;25.83;16.42;;;;;;;;;;5038523;28;20128;-68
2022/06/07 04:22:54;;;;;;;26.40;15.38;;;;;;;;;;5037085;28;20024;-68
2022/06/07 04:25:20;;;;;;;23.60;14.63;;;;;;;;;;5036169;28;20028;-69
2022/06/07 04:27:46;;;;;;;24.17;15.30;;;;;;;;;;5029530;28;20088;-69
2022/06/07 04:30:13;;;;;;;20.42;14.15;;;;;;;;;;5038456;28;20224;-69
2022/06/07 04:32:45;;;;;;;20.00;14.48;;;;;;;;;;5031776;28;20443;-69
2022/06/07 04:35:11;;;;;;;21.75;15.35;;;;;;;;;;5040058;28;20330;-69
2022/06/07 04:37:37;;;;;;;20.88;15.05;;;;;;;;;;5031360;28;20066;-69
2022/06/07 04:40:03;;;;;;;20.30;14.82;;;;;;;;;;5040902;28;20060;-69
2022/06/07 04:42:29;;;;;;;19.92;14.32;;;;;;;;;;5039916;28;20028;-68
2022/06/07 04:44:55;;;;;;;21.23;14.98;;;;;;;;;;5026724;28;20100;-68
2022/06/07 04:47:21;;;;;;;24.02;14.32;;;;;;;;;;5031451;28;20029;-67
2022/06/07 04:49:47;;;;;;;22.65;14.68;;;;;;;;;;5035384;28;20045;-67
2022/06/07 04:52:13;;;;;;;22.67;14.38;;;;;;;;;;5051693;28;20032;-68
2022/06/07 04:54:39;;;;;;;18.10;13.70;;;;;;;;;;5037061;28;20033;-68
2022/06/07 04:57:06;;;;;;;19.90;13.25;;;;;;;;;;5024976;28;20033;-68
2022/06/07 04:59:32;;;;;;;20.33;12.68;;;;;;;;;;5029434;28;20041;-68
2022/06/07 05:01:58;;;;;;;19.17;12.52;;;;;;;;;;5031428;28;20483;-70
2022/06/07 05:04:25;;;;;;;20.73;12.40;;;;;;;;;;5036776;28;20102;-68
2022/06/07 05:06:51;;;;;;;21.25;12.63;;;;;;;;;;5034696;28;20091;-68
2022/06/07 05:09:20;;;;;;;16.17;11.73;;;;;;;;;;5034993;28;20034;-69
2022/06/07 05:11:50;;;;;;;21.67;12.13;;;;;;;;;;5032973;28;20482;-67
2022/06/07 05:14:16;;;;;;;18.42;11.55;;;;;;;;;;5039964;28;20494;-68
2022/06/07 05:16:42;;;;;;;17.88;11.40;;;;;;;;;;5032881;28;20040;-69
2022/06/07 05:19:10;;;;;;;16.65;10.77;;;;;;;;;;5029650;28;20458;-68
2022/06/07 05:21:36;;;;;;;18.15;11.32;;;;;;;;;;5033263;28;20090;-68
2022/06/07 05:24:02;;;;;;;17.40;10.38;;;;;;;;;;5030714;28;20513;-68
2022/06/07 05:26:33;;;;;;;17.13;12.07;;;;;;;;;;5033985;28;20033;-74
2022/06/07 05:28:59;;;;;;;17.10;11.18;;;;;;;;;;5031238;28;20025;-75
2022/06/07 05:31:25;;;;;;;18.25;11.57;;;;;;;;;;5035959;28;20478;-75
2022/06/07 05:33:52;;;;;;;21.63;11.32;;;;;;;;;;5036915;28;20060;-74
2022/06/07 05:36:19;;;;;;;16.38;11.48;;;;;;;;;;5035945;28;20044;-74
2022/06/07 05:38:45;;;;;;;20.42;11.93;;;;;;;;;;5030444;28;20071;-75
2022/06/07 05:41:22;;;;;;;16.05;10.45;;;;;;;;;;5033395;28;20471;-74
2022/06/07 05:43:48;;;;;;;18.30;10.52;;;;;;;;;;5040527;28;21227;-75
2022/06/07 05:46:14;;;;;;;15.35;11.30;;;;;;;;;;5038208;28;20233;-75
2022/06/07 05:48:40;;;;;;;14.20;10.73;;;;;;;;;;5031995;28;20037;-73
2022/06/07 05:51:06;;;;;;;15.00;10.88;;;;;;;;;;5036245;28;20580;-74
2022/06/07 05:53:32;;;;;;;15.00;10.85;;;;;;;;;;5031007;28;20037;-74
2022/06/07 05:56:04;;;;;;;17.27;10.98;;;;;;;;;;5035521;28;20072;-74
2022/06/07 05:58:30;;;;;;;14.98;9.73;;;;;;;;;;5026985;28;20034;-73
2022/06/07 06:00:56;;;;;;;21.63;10.82;;;;;;;;;;5031405;28;20148;-73
2022/06/07 06:03:22;;;;;;;17.02;9.75;;;;;;;;;;5034252;28;20025;-74
2022/06/07 06:05:49;;;;;;;16.40;10.27;;;;;;;;;;5036941;28;20060;-75
2022/06/07 06:11:04;;;;;;;18.00;11.23;;;;;;;;;;5001803;28;20040;-74
2022/06/07 06:13:30;;;;;;;20.17;10.93;;;;;;;;;;5027731;28;20482;-74
2022/06/07 06:16:09;;;;;;;23.00;10.90;;;;;;;;;;5010613;28;20429;-75
2022/06/07 06:18:35;;;;;;;15.05;10.65;;;;;;;;;;5021384;28;20464;-75
2022/06/07 06:21:01;;;;;;;20.23;10.48;;;;;;;;;;5019070;28;20025;-74
2022/06/07 06:23:27;;;;;;;14.65;9.50;;;;;;;;;;5020321;28;20472;-74
2022/06/07 06:25:53;;;;;;;15.52;9.90;;;;;;;;;;5013938;28;20173;-74
2022/06/07 06:28:19;;;;;;;16.50;9.82;;;;;;;;;;5014004;28;20030;-74
2022/06/07 06:30:46;;;;;;;14.52;9.77;;;;;;;;;;5013989;28;20103;-75
2022/06/07 06:33:12;;;;;;;14.60;10.20;;;;;;;;;;5022874;28;20100;-75
2022/06/07 06:35:39;;;;;;;20.75;10.13;;;;;;;;;;5023994;28;20124;-75
2022/06/07 06:38:05;;;;;;;16.50;10.25;;;;;;;;;;5019327;28;20053;-74
2022/06/07 06:40:32;;;;;;;19.67;10.20;;;;;;;;;;5021264;28;20100;-75
2022/06/07 06:42:58;;;;;;;20.63;10.02;;;;;;;;;;5016849;28;20522;-73
2022/06/07 06:45:24;;;;;;;14.55;10.43;;;;;;;;;;5016697;28;20061;-74
2022/06/07 06:47:50;;;;;;;18.75;11.23;;;;;;;;;;5020532;28;20546;-74
2022/06/07 06:50:17;;;;;;;18.88;10.70;;;;;;;;;;5025607;28;20037;-75
2022/06/07 06:52:43;;;;;;;17.63;9.38;;;;;;;;;;5024584;28;20113;-74
2022/06/07 06:55:09;;;;;;;14.43;9.00;;;;;;;;;;5026510;28;20116;-74
2022/06/07 06:57:35;;;;;;;13.90;8.55;;;;;;;;;;5024940;28;20057;-73
2022/06/07 07:00:04;;;;;;;12.45;7.72;;;;;;;;;;5020028;28;20494;-75
2022/06/07 07:02:30;;;;;;;11.90;8.25;;;;;;;;;;5016034;28;20415;-75
2022/06/07 07:04:56;;;;;;;16.88;9.00;;;;;;;;;;5014041;28;20030;-74
2022/06/07 07:07:22;;;;;;;15.45;8.43;;;;;;;;;;5028053;28;20044;-75
2022/06/07 07:09:49;;;;;;;16.88;9.50;;;;;;;;;;5002855;28;20042;-75
2022/06/07 07:12:16;;;;;;;13.20;8.00;;;;;;;;;;5020968;28;20491;-74
2022/06/07 07:14:42;;;;;;;15.93;8.75;;;;;;;;;;5026093;28;20049;-74
2022/06/07 07:17:08;;;;;;;15.38;8.55;;;;;;;;;;5021363;28;20026;-73
2022/06/07 07:19:35;;;;;;;12.20;7.85;;;;;;;;;;5002437;28;20172;-75
2022/06/07 07:22:01;;;;;;;12.10;8.07;;;;;;;;;;5018251;28;20044;-74
2022/06/07 07:24:27;;;;;;;15.02;7.50;;;;;;;;;;5011620;28;20033;-75
2022/06/07 07:26:54;;;;;;;14.45;7.95;;;;;;;;;;5015318;28;20037;-75
2022/06/07 07:29:21;;;;;;;16.98;8.55;;;;;;;;;;5014245;28;20030;-74
2022/06/07 07:31:47;;;;;;;16.55;8.60;;;;;;;;;;5021057;28;20037;-76
2022/06/07 07:34:14;;;;;;;16.35;8.80;;;;;;;;;;5023299;28;20546;-74
2022/06/07 07:36:47;;;;;;;18.35;10.75;;;;;;;;;;5027535;28;20029;-74
2022/06/07 07:39:14;;;;;;;17.38;9.45;;;;;;;;;;5026728;28;20443;-75
2022/06/07 07:41:41;;;;;;;13.40;8.40;;;;;;;;;;5026553;28;20218;-75
2022/06/07 07:44:11;;;;;;;14.75;8.30;;;;;;;;;;5018489;28;20061;-76
2022/06/07 07:46:38;;;;;;;15.38;8.95;;;;;;;;;;5019638;28;20022;-78
2022/06/07 07:49:04;;;;;;;16.20;9.02;;;;;;;;;;5020142;28;20033;-75
2022/06/07 07:51:32;;;;;;;14.95;10.02;;;;;;;;;;5014103;28;20037;-74
2022/06/07 07:53:59;;;;;;;17.50;9.05;;;;;;;;;;5024240;28;20029;-74
2022/06/07 07:56:25;;;;;;;17.00;9.90;;;;;;;;;;5019591;28;20474;-76
2022/06/07 07:58:52;;;;;;;21.23;10.02;;;;;;;;;;5026375;28;20055;-75
2022/06/07 08:01:21;;;;;;;19.38;10.10;;;;;;;;;;5024813;28;20891;-74
2022/06/07 08:03:48;;;;;;;17.88;10.25;;;;;;;;;;5024848;28;20030;-75
2022/06/07 08:06:18;;;;;;;13.35;9.75;;;;;;;;;;5030386;28;20112;-75
2022/06/07 08:08:48;;;;;;;18.15;9.88;;;;;;;;;;5024748;28;20079;-74
2022/06/07 08:11:15;;;;;;;12.95;10.02;;;;;;;;;;5038456;28;20079;-75
2022/06/07 08:13:42;;;;;;;15.00;10.48;;;;;;;;;;5027576;28;20043;-74
2022/06/07 08:16:08;;;;;;;23.42;11.70;;;;;;;;;;5029636;28;20045;-73
2022/06/07 08:18:35;;;;;;;16.67;10.20;;;;;;;;;;5017929;28;20038;-74
2022/06/07 08:21:05;;;;;;;16.42;11.30;;;;;;;;;;5023023;28;20040;-75
2022/06/07 08:23:31;;;;;;;17.95;11.43;;;;;;;;;;5023258;28;20053;-75
2022/06/07 08:25:57;;;;;;;17.70;10.20;;;;;;;;;;5024708;28;20025;-75
2022/06/07 08:28:23;;;;;;;21.35;10.60;;;;;;;;;;5015085;28;20079;-75
2022/06/07 08:30:49;;;;;;;14.90;11.05;;;;;;;;;;5022295;28;20025;-76
2022/06/07 08:38:45;;;;;;;16.92;9.93;;;;;;;;;;5019865;28;20080;-73
2022/06/07 08:41:20;;;;;;;17.48;10.00;;;;;;;;;;5017425;28;20029;-74
2022/06/07 08:43:46;;;;;;;18.40;10.52;;;;;;;;;;5027954;28;20033;-73
2022/06/07 08:46:14;;;;;;;16.20;11.02;;;;;;;;;;5025210;28;20041;-74
2022/06/07 08:48:41;;;;;;;22.23;13.07;;;;;;;;;;5024472;28;20040;-73
2022/06/07 08:51:23;;;;;;;19.48;13.82;;;;;;;;;;5017921;28;20140;-74
2022/06/07 08:53:51;;;;;;;23.50;12.23;;;;;;;;;;5024010;28;21370;-74
2022/06/07 08:56:22;;;;;;;17.05;12.65;;;;;;;;;;5023624;28;20116;-73
2022/06/07 08:58:51;;;;;;;19.90;12.52;;;;;;;;;;5020154;28;20160;-77
2022/06/07 09:01:32;;;;;;;18.85;11.30;;;;;;;;;;5021230;28;20483;-76
2022/06/07 09:03:59;;;;;;;;;;;;;;;;;;5015185;28;20041;-74
2022/06/07 09:06:26;;;;;;;18.55;10.38;;;;;;;;;;5017912;28;19921;-75
2022/06/07 09:08:54;;;;;;;16.13;10.93;;;;;;;;;;5020083;28;20140;-74
2022/06/07 09:14:31;;;;;;;14.32;10.38;;;;;;;;;;5014188;28;20053;-76
2022/06/07 09:16:58;;;;;;;21.25;11.02;;;;;;;;;;5022587;28;20081;-76
2022/06/07 09:19:25;;;;;;;21.45;11.13;;;;;;;;;;5014440;28;20098;-75
2022/06/07 09:21:52;;;;;;;23.60;10.18;;;;;;;;;;5016875;28;20589;-78
2022/06/07 09:24:25;;;;;;;20.13;10.75;;;;;;;;;;5015135;28;20021;-75
2022/06/07 09:26:51;;;;;;;27.65;11.32;;;;;;;;;;5029245;28;20029;-76
2022/06/07 09:29:21;;;;;;;17.02;9.85;;;;;;;;;;5015119;28;20042;-67
2022/06/07 09:31:47;;;;;;;;;;;;;;;;;;5020361;28;20065;-70
2022/06/07 09:34:27;;;;;;;16.83;9.80;;;;;;;;;;5018892;28;19964;-69
2022/06/07 09:37:04;;;;;;;17.58;10.10;;;;;;;;;;5018040;28;20026;-70
2022/06/07 09:39:34;;;;;;;12.40;8.27;;;;;;;;;;5016380;28;20045;-69
2022/06/07 09:42:02;;;;;;;14.03;10.03;;;;;;;;;;5020153;28;20021;-70
2022/06/07 09:44:30;;;;;;;14.00;10.27;;;;;;;;;;5017884;28;20046;-69
2022/06/07 09:47:04;;;;;;;14.90;8.93;;;;;;;;;;5017114;28;20109;-69
2022/06/07 09:49:30;;;;;;;16.27;8.40;;;;;;;;;;5017461;28;20040;-69
2022/06/07 09:52:03;;;;;;;15.85;8.43;;;;;;;;;;5021069;28;20025;-68
2022/06/07 09:54:29;;;;;;;11.25;7.80;;;;;;;;;;5009177;28;20043;-69
2022/06/07 09:57:15;;;;;;;13.82;9.48;;;;;;;;;;5019909;28;20306;-70
2022/06/07 10:00:07;;;;;;;15.52;10.10;;;;;;;;;;5012171;28;20494;-70
2022/06/07 10:02:39;;;;;;;14.75;10.20;;;;;;;;;;4993604;28;20060;-68
2022/06/07 10:05:18;;;;;;;17.55;10.90;;;;;;;;;;5019669;28;20034;-69
2022/06/07 10:07:54;;;;;;;14.07;9.90;;;;;;;;;;5029857;28;20033;-67
2022/06/07 10:10:20;;;;;;;12.38;10.35;;;;;;;;;;5033408;28;20112;-68
2022/06/07 10:12:53;;;;;;;14.48;9.93;;;;;;;;;;5033492;28;20036;-68
2022/06/07 10:15:21;;;;;;;13.32;9.25;;;;;;;;;;5030225;28;20030;-68
2022/06/07 10:17:54;;;;;;;14.15;10.25;;;;;;;;;;5026110;28;20053;-69
2022/06/07 10:20:39;;;;;;;13.60;10.45;;;;;;;;;;5020250;28;20025;-69
2022/06/07 10:23:05;;;;;;;17.10;10.80;;;;;;;;;;5022818;28;20029;-69
2022/06/07 10:25:46;;;;;;;16.48;10.18;;;;;;;;;;5024310;28;20037;-69
2022/06/07 10:28:18;;;;;;;14.90;9.63;;;;;;;;;;5021728;28;21460;-68
2022/06/07 10:30:44;;;;;;;14.90;10.43;;;;;;;;;;5017435;28;20026;-69
2022/06/07 10:33:29;;;;;;;15.43;9.82;;;;;;;;;;5023774;28;20075;-69
2022/06/07 10:35:55;;;;;;;12.50;8.75;;;;;;;;;;5023088;28;21293;-69
2022/06/07 10:38:30;;;;;;;12.55;8.65;;;;;;;;;;5030642;28;20029;-69
2022/06/07 10:41:05;;;;;;;11.82;8.30;;;;;;;;;;5025976;28;20057;-69
2022/06/07 10:43:39;;;;;;;12.05;9.05;;;;;;;;;;5021966;28;20441;-69
2022/06/07 10:46:09;;;;;;;18.77;10.52;;;;;;;;;;5019912;28;20057;-68
2022/06/07 10:48:40;;;;;;;12.75;10.52;;;;;;;;;;5018104;28;20038;-68
2022/06/07 10:52:20;;;;;;;14.75;10.63;;;;;;;;;;5022631;28;20037;-68
2022/06/07 10:54:03;;;;;;;15.18;10.38;;;;;;;;;;5018044;28;20410;-68
2022/06/07 10:56:33;;;;;;;17.10;11.40;;;;;;;;;;5017594;28;20499;-68
2022/06/07 10:59:01;;;;;;;16.42;11.80;;;;;;;;;;5022532;28;21294;-68
2022/06/07 11:01:37;;;;;;;13.13;8.60;;;;;;;;;;5017357;28;20034;-68
2022/06/07 11:09:19;;;;;;;11.65;8.23;;;;;;;;;;5018466;28;20018;-67
2022/06/07 11:09:54;;;;;;;20.40;10.00;;;;;;;;;;5022381;28;20061;-68
2022/06/07 11:12:22;;;;;;;18.70;10.05;;;;;;;;;;5019297;28;20538;-68
2022/06/07 11:15:00;;;;;;;17.05;10.63;;;;;;;;;;5015563;28;20491;-68
2022/06/07 11:17:33;;;;;;;18.35;9.63;;;;;;;;;;5019579;28;20030;-68
2022/06/07 11:20:00;;;;;;;16.33;11.73;;;;;;;;;;5017302;28;20030;-69
2022/06/07 11:22:31;;;;;;;17.58;10.85;;;;;;;;;;5023109;28;20033;-69
2022/06/07 11:24:59;;;;;;;;;;;;;;;;;;5014581;28;20026;-69
2022/06/07 11:27:26;;;;;;;18.42;10.18;;;;;;;;;;5012555;28;20011;-69
2022/06/07 11:30:10;;;;;;;14.00;10.43;;;;;;;;;;5019197;28;20021;-68
2022/06/07 11:32:39;;;;;;;14.07;9.93;;;;;;;;;;5024324;28;20018;-67
2022/06/07 11:35:31;;;;;;;15.02;10.05;;;;;;;;;;5020302;28;20026;-67
2022/06/07 11:37:57;;;;;;;11.25;9.20;;;;;;;;;;5018848;28;20038;-68
2022/06/07 11:40:28;;;;;;;15.45;9.07;;;;;;;;;;5018937;28;20034;-68
2022/06/07 11:42:54;;;;;;;;;;;;;;;;;;5021294;28;20197;-68
2022/06/07 11:45:25;;;;;;;14.15;9.20;;;;;;;;;;5021658;28;20027;-69
2022/06/07 11:48:03;;;;;;;12.98;9.02;;;;;;;;;;5025794;28;20021;-68
2022/06/07 11:50:48;;;;;;;13.95;10.20;;;;;;;;;;5020245;28;20441;-69
2022/06/07 11:53:19;;;;;;;11.95;9.77;;;;;;;;;;5021710;28;20069;-69
2022/06/07 11:55:46;;;;;;;13.68;10.25;;;;;;;;;;5022989;28;20096;-67
2022/06/07 11:58:12;;;;;;;14.35;10.90;;;;;;;;;;5022919;28;20057;-67
2022/06/07 12:00:40;;;;;;;14.38;10.15;;;;;;;;;;5025734;28;20052;-68
2022/06/07 12:03:08;;;;;;;15.63;10.20;;;;;;;;;;5015487;28;20061;-69
2022/06/07 12:05:37;;;;;;;15.40;10.75;;;;;;;;;;5018124;28;20483;-68
2022/06/07 12:08:16;;;;;;;15.57;10.23;;;;;;;;;;5022571;28;20048;-68
2022/06/07 12:10:54;;;;;;;13.65;9.82;;;;;;;;;;5020011;28;20183;-67
2022/06/07 12:13:49;;;;;;;15.82;10.48;;;;;;;;;;5021355;28;20033;-68
2022/06/07 12:16:27;;;;;;;13.98;10.57;;;;;;;;;;5020493;28;20065;-68
2022/06/07 12:18:54;;;;;;;15.15;10.45;;;;;;;;;;5015443;28;20021;-69
2022/06/07 12:21:21;;;;;;;15.23;10.52;;;;;;;;;;5013380;28;20071;-68
2022/06/07 12:23:48;;;;;;;14.70;9.10;;;;;;;;;;5014676;28;20028;-68
2022/06/07 12:26:19;;;;;;;15.95;10.20;;;;;;;;;;5020140;28;20083;-69
2022/06/07 12:29:11;;;;;;;12.90;9.93;;;;;;;;;;5019601;28;20068;-69
2022/06/07 12:31:53;;;;;;;17.38;11.30;;;;;;;;;;5023406;28;20116;-70
2022/06/07 12:34:21;;;;;;;13.70;11.13;;;;;;;;;;5023728;28;20027;-70
2022/06/07 12:36:51;;;;;;;14.60;10.68;;;;;;;;;;5025611;28;20038;-70
2022/06/07 12:39:17;;;;;;;17.45;11.75;;;;;;;;;;5040260;28;20537;-71
2022/06/07 12:41:49;;;;;;;12.82;10.52;;;;;;;;;;5030523;28;20037;-67
2022/06/07 12:44:43;;;;;;;13.93;11.00;;;;;;;;;;5026446;28;20165;-68
2022/06/07 12:47:32;;;;;;;11.95;9.68;;;;;;;;;;5023805;28;20033;-68
2022/06/07 12:49:59;;;;;;;15.18;9.63;;;;;;;;;;5032690;28;20047;-68
2022/06/07 12:52:29;;;;;;;13.00;9.82;;;;;;;;;;5035739;28;20514;-68
2022/06/07 12:54:55;;;;;;;;;;;;;;;;;;5038413;28;20486;-69
2022/06/07 12:57:33;;;;;;;16.65;11.32;;;;;;;;;;5030332;28;19998;-69
2022/06/07 13:00:13;;;;;;;13.73;11.07;;;;;;;;;;5047475;28;20219;-68
2022/06/07 13:02:41;;;;;;;13.52;10.63;;;;;;;;;;5031688;28;20048;-69
2022/06/07 13:05:19;;;;;;;13.32;10.57;;;;;;;;;;5042690;28;20033;-67
2022/06/07 13:07:49;;;;;;;16.52;10.95;;;;;;;;;;5036292;28;20482;-68
2022/06/07 13:10:20;;;;;;;13.15;10.27;;;;;;;;;;5036208;28;20036;-69
2022/06/07 13:12:48;;;;;;;11.43;9.32;;;;;;;;;;5035185;28;20029;-69
2022/06/07 13:15:22;;;;;;;17.40;11.13;;;;;;;;;;5031820;28;20607;-68
2022/06/07 13:17:59;;;;;;;14.60;10.63;;;;;;;;;;5032417;28;20099;-68
2022/06/07 13:20:25;;;;;;;14.18;10.77;;;;;;;;;;5041657;28;20024;-69
2022/06/07 13:22:51;;;;;;;14.27;10.27;;;;;;;;;;5036287;28;20444;-69
2022/06/07 13:25:17;;;;;;;16.83;12.13;;;;;;;;;;5029066;28;20053;-69
2022/06/07 13:27:44;;;;;;;14.82;11.85;;;;;;;;;;5030647;28;20076;-68
2022/06/07 13:30:15;;;;;;;14.57;11.93;;;;;;;;;;5029674;28;20025;-68
2022/06/07 13:32:41;;;;;;;16.75;10.63;;;;;;;;;;5026701;28;20029;-68
2022/06/07 13:35:26;;;;;;;15.98;12.10;;;;;;;;;;5029385;28;20104;-70
2022/06/07 13:38:03;;;;;;;16.42;13.57;;;;;;;;;;5025820;28;20064;-69
2022/06/07 13:40:31;;;;;;;18.25;13.50;;;;;;;;;;5026835;28;20013;-69
2022/06/07 13:43:00;;;;;;;19.13;14.55;;;;;;;;;;5029324;28;20022;-69
2022/06/07 13:45:28;;;;;;;19.58;14.05;;;;;;;;;;5034113;28;20048;-69
2022/06/07 13:48:00;;;;;;;16.95;13.10;;;;;;;;;;5032775;28;20033;-69
2022/06/07 13:53:27;;;;;;;16.48;13.32;;;;;;;;;;5032174;28;21158;-69
2022/06/07 13:56:07;;;;;;;12.90;10.35;;;;;;;;;;5035086;28;20159;-69
2022/06/07 13:58:35;;;;;;;14.80;10.75;;;;;;;;;;5028202;28;20038;-69
2022/06/07 14:01:13;;;;;;;15.82;10.90;;;;;;;;;;5028789;28;20407;-69
2022/06/07 14:03:41;;;;;;;15.80;11.30;;;;;;;;;;5026052;28;20120;-69
2022/06/07 14:06:18;;;;;;;14.57;10.60;;;;;;;;;;5026912;28;20030;-69
2022/06/07 14:08:44;;;;;;;12.70;10.02;;;;;;;;;;5027266;28;20033;-70
2022/06/07 14:11:10;;;;;;;15.23;12.38;;;;;;;;;;5027445;28;20044;-68
2022/06/07 14:13:37;;;;;;;17.70;13.50;;;;;;;;;;5026678;28;20037;-68
2022/06/07 14:16:03;;;;;;;15.95;12.10;;;;;;;;;;5027976;28;20740;-68
2022/06/07 14:18:30;;;;;;;15.70;12.10;;;;;;;;;;5028552;28;20319;-69
2022/06/07 14:20:57;;;;;;;17.85;12.63;;;;;;;;;;5029418;28;20112;-69
2022/06/07 14:23:23;;;;;;;21.45;13.43;;;;;;;;;;5029618;28;20083;-68
2022/06/07 14:25:49;;;;;;;15.55;12.88;;;;;;;;;;5027218;28;20490;-68
2022/06/07 14:28:24;;;;;;;18.10;14.75;;;;;;;;;;5026208;28;20042;-68
2022/06/07 14:30:55;;;;;;;20.48;14.00;;;;;;;;;;5031436;28;20059;-67
2022/06/07 14:33:22;;;;;;;17.05;12.88;;;;;;;;;;5035446;28;20032;-67
2022/06/07 14:35:48;;;;;;;16.55;13.70;;;;;;;;;;5038765;28;20036;-68
2022/06/07 14:38:16;;;;;;;18.98;15.55;;;;;;;;;;5033091;28;20029;-69
2022/06/07 14:40:43;;;;;;;17.90;14.20;;;;;;;;;;5031424;28;20021;-68
2022/06/07 14:43:14;;;;;;;19.20;15.57;;;;;;;;;;5033777;28;20022;-68
2022/06/07 14:45:48;;;;;;;18.15;14.80;;;;;;;;;;5027820;28;20060;-68
2022/06/07 14:48:21;;;;;;;22.40;15.70;;;;;;;;;;5036401;28;20021;-68
2022/06/07 14:50:48;;;;;;;15.43;13.68;;;;;;;;;;5028595;28;20048;-69
2022/06/07 14:53:14;;;;;;;15.95;13.98;;;;;;;;;;5026803;28;20549;-67
2022/06/07 14:55:40;;;;;;;15.82;12.77;;;;;;;;;;5034813;28;20029;-68